Glastonbury, CT (06033)

2:23 AM EDT on August 02, 2015 (GMT -0400)
Strickland St | | Change Station
CLOSE
Current Station
Personal Weather Station
Location: Glastonbury, CT
Elevation: 441 ft
Nearby Weather Stations

Elev 441 ft 41.71 °N, 72.54 °W | Updated 13 minutes ago

Clear
Clear
66.5 °F
Feels Like 66.5 °F
N
0.0
Wind Variable Wind from SE
Gusts 0.0 mph

Today
High -- | Low -- °F
--% Chance of Precip.
Yesterday
High -- | Low -- °F
Precip. -- in
5:45 AM 8:07 PM
Waning Gibbous, 95% visible
Pressure 29.86 in
Visibility 10.0 miles
Clouds Clear
Dew Point 58 °F
Humidity 75%
Rainfall 0.00 in
Snow Depth Not available.
UV 0 out of 12
Pollen 7.20 out of 12
Air Quality Not available.
Flu Activity Not available.
METAR KHFD 020553Z AUTO 00000KT 10SM CLR 20/19 A2986 RMK AO2 SLP111 T02000189 10278 20194 51010

More Conditions Fewer Conditions

Pressure 29.86 in
Visibility 10.0 miles
Clouds Clear
Dew Point 58 °F
Humidity 75%
Rainfall 0.00 in
Snow Depth Not available.
UV 0 out of 12
Pollen 7.20 out of 12
Air Quality Not available.
Flu Activity Not available.
METAR KHFD 020553Z AUTO 00000KT 10SM CLR 20/19 A2986 RMK AO2 SLP111 T02000189 10278 20194 51010

More Conditions Fewer Conditions

10-Day Weather Forecast

×

Almanac

Astronomy

Aug. 02, 2015 Rise Set
Actual Time
Civil Twilight
Nautical Twilight
Astronomical Twilight
Moon
Length of Visible Light
Length of Day
Tomorrow will be .
, % of the Moon is Illuminated

Today's Extremes

State Highs State Lows

Community

WunderPhotos

Upload Photos

1,843,197 photos uploaded!

WunderBlogs® & News

Nearby

Air Quality

  Air Quality AQ Index Pollutant
Not available.

Snow Depth

Station Depth Elevation

Earthquake Activity

City Distance Mag. Time & Date
Minimum magnitude displayed is 2.5.

Coastal Water Temperatures

Place Temperature

Stations

Nearby Weather Stations

Station Location Temp. Windchill Dew Point Humidity Wind Precip. Elev Updated Type